Terminal Aerodrome Forecast
Issued by NWS Melbourne, FL

Home | Current Version | Previous Version | Text Only | Print | Product List | Glossary On
Versions: 1 2 3 4 5 6 7 8 9 10 11 12
830
FTUS42 KMLB 221136
TAFDAB
TAF
KDAB 221136Z 2212/2312 28003KT P6SM SCT060 SCT250
     FM221400 35009KT P6SM FEW030 SCT250
     FM221800 02013KT P6SM SCT040
     FM230000 05011KT P6SM SCT060
     FM230300 04005KT P6SM SCT060 SCT250=

USA.gov is the U.S. government's official web portal to all federal, state and local government web resources and services.